sensor_id;sensor_type;location;lat;lon;timestamp;pressure;altitude;pressure_sealevel;temperature;humidity
21504;BME280;10913;51.992;9.228;2023-09-07T00:00:46;100872.47;;;18.84;94.61
21504;BME280;10913;51.992;9.228;2023-09-07T00:03:13;100877.03;;;18.81;94.85
21504;BME280;10913;51.992;9.228;2023-09-07T00:05:38;100882.53;;;18.78;94.85
21504;BME280;10913;51.992;9.228;2023-09-07T00:08:04;100880.81;;;18.75;95.42
21504;BME280;10913;51.992;9.228;2023-09-07T00:10:29;100882.75;;;18.70;95.58
21504;BME280;10913;51.992;9.228;2023-09-07T00:12:55;100879.34;;;18.65;95.72
21504;BME280;10913;51.992;9.228;2023-09-07T00:15:20;100880.34;;;18.61;95.60
21504;BME280;10913;51.992;9.228;2023-09-07T00:17:46;100885.88;;;18.55;96.05
21504;BME280;10913;51.992;9.228;2023-09-07T00:20:11;100884.13;;;18.54;95.54
21504;BME280;10913;51.992;9.228;2023-09-07T00:22:39;100877.09;;;18.50;95.83
21504;BME280;10913;51.992;9.228;2023-09-07T00:25:05;100887.84;;;18.48;95.64
21504;BME280;10913;51.992;9.228;2023-09-07T00:27:31;100884.38;;;18.45;95.52
21504;BME280;10913;51.992;9.228;2023-09-07T00:29:57;100886.22;;;18.43;95.62
21504;BME280;10913;51.992;9.228;2023-09-07T00:32:22;100885.34;;;18.42;95.31
21504;BME280;10913;51.992;9.228;2023-09-07T00:34:47;100880.88;;;18.43;95.25
21504;BME280;10913;51.992;9.228;2023-09-07T00:37:13;100880.88;;;18.43;94.92
21504;BME280;10913;51.992;9.228;2023-09-07T00:39:38;100880.94;;;18.40;95.52
21504;BME280;10913;51.992;9.228;2023-09-07T00:42:04;100880.19;;;18.36;95.52
21504;BME280;10913;51.992;9.228;2023-09-07T00:44:29;100891.03;;;18.32;95.62
21504;BME280;10913;51.992;9.228;2023-09-07T00:46:56;100883.16;;;18.25;96.03
21504;BME280;10913;51.992;9.228;2023-09-07T00:49:22;100885.09;;;18.20;96.23
21504;BME280;10913;51.992;9.228;2023-09-07T00:51:48;100879.84;;;18.17;96.82
21504;BME280;10913;51.992;9.228;2023-09-07T00:54:13;100885.31;;;18.13;97.26
21504;BME280;10913;51.992;9.228;2023-09-07T00:56:40;100883.59;;;18.10;97.30
21504;BME280;10913;51.992;9.228;2023-09-07T00:59:07;100889.00;;;18.09;97.43
21504;BME280;10913;51.992;9.228;2023-09-07T01:01:33;100879.25;;;18.06;97.46
21504;BME280;10913;51.992;9.228;2023-09-07T01:03:58;100887.34;;;18.03;97.48
21504;BME280;10913;51.992;9.228;2023-09-07T01:06:34;100883.84;;;18.01;97.09
21504;BME280;10913;51.992;9.228;2023-09-07T01:09:11;100884.00;;;17.97;97.31
21504;BME280;10913;51.992;9.228;2023-09-07T01:11:39;100887.63;;;17.94;96.81
21504;BME280;10913;51.992;9.228;2023-09-07T01:14:05;100886.78;;;17.92;96.56
21504;BME280;10913;51.992;9.228;2023-09-07T01:16:31;100883.31;;;17.88;96.24
21504;BME280;10913;51.992;9.228;2023-09-07T01:19:01;100878.94;;;17.86;96.36
21504;BME280;10913;51.992;9.228;2023-09-07T01:21:32;100878.06;;;17.85;95.94
21504;BME280;10913;51.992;9.228;2023-09-07T01:23:59;100877.25;;;17.82;96.02
21504;BME280;10913;51.992;9.228;2023-09-07T01:26:24;100872.88;;;17.79;96.15
21504;BME280;10913;51.992;9.228;2023-09-07T01:28:50;100869.44;;;17.76;95.86
21504;BME280;10913;51.992;9.228;2023-09-07T01:31:15;100871.25;;;17.74;96.04
21504;BME280;10913;51.992;9.228;2023-09-07T01:33:40;100871.41;;;17.68;96.16
21504;BME280;10913;51.992;9.228;2023-09-07T01:36:06;100867.03;;;17.64;96.55
21504;BME280;10913;51.992;9.228;2023-09-07T01:38:31;100873.28;;;17.63;96.64
21504;BME280;10913;51.992;9.228;2023-09-07T01:40:57;100869.81;;;17.59;96.75
21504;BME280;10913;51.992;9.228;2023-09-07T01:43:22;100869.97;;;17.54;96.82
21504;BME280;10913;51.992;9.228;2023-09-07T01:45:47;100863.78;;;17.52;96.68
21504;BME280;10913;51.992;9.228;2023-09-07T01:48:14;100869.19;;;17.49;96.83
21504;BME280;10913;51.992;9.228;2023-09-07T01:50:39;100861.22;;;17.48;96.70
21504;BME280;10913;51.992;9.228;2023-09-07T01:53:05;100866.59;;;17.46;96.70
21504;BME280;10913;51.992;9.228;2023-09-07T01:55:31;100863.16;;;17.41;96.68
21504;BME280;10913;51.992;9.228;2023-09-07T01:57:56;100860.59;;;17.38;96.76
21504;BME280;10913;51.992;9.228;2023-09-07T02:00:22;100872.22;;;17.36;96.84
21504;BME280;10913;51.992;9.228;2023-09-07T02:02:47;100867.84;;;17.33;96.88
21504;BME280;10913;51.992;9.228;2023-09-07T02:05:13;100866.22;;;17.26;97.57
21504;BME280;10913;51.992;9.228;2023-09-07T02:07:38;100868.13;;;17.21;98.02
21504;BME280;10913;51.992;9.228;2023-09-07T02:10:04;100869.94;;;17.19;97.90
21504;BME280;10913;51.992;9.228;2023-09-07T02:12:29;100862.88;;;17.18;98.08
21504;BME280;10913;51.992;9.228;2023-09-07T02:14:55;100868.31;;;17.15;98.25
21504;BME280;10913;51.992;9.228;2023-09-07T02:17:21;100864.78;;;17.13;97.76
21504;BME280;10913;51.992;9.228;2023-09-07T02:19:46;100866.63;;;17.11;97.72
21504;BME280;10913;51.992;9.228;2023-09-07T02:22:12;100864.84;;;17.10;97.95
21504;BME280;10913;51.992;9.228;2023-09-07T02:24:37;100866.66;;;17.09;97.61
21504;BME280;10913;51.992;9.228;2023-09-07T02:27:03;100866.69;;;17.08;97.65
21504;BME280;10913;51.992;9.228;2023-09-07T02:29:28;100865.84;;;17.06;97.56
21504;BME280;10913;51.992;9.228;2023-09-07T02:31:53;100867.69;;;17.02;97.64
21504;BME280;10913;51.992;9.228;2023-09-07T02:34:19;100869.53;;;17.00;97.10
21504;BME280;10913;51.992;9.228;2023-09-07T02:36:44;100873.97;;;17.00;97.31
21504;BME280;10913;51.992;9.228;2023-09-07T02:39:10;100877.56;;;16.99;97.25
21504;BME280;10913;51.992;9.228;2023-09-07T02:41:37;100872.31;;;16.96;97.55
21504;BME280;10913;51.992;9.228;2023-09-07T02:44:03;100867.94;;;16.93;97.51
21504;BME280;10913;51.992;9.228;2023-09-07T02:46:29;100867.94;;;16.93;97.40
21504;BME280;10913;51.992;9.228;2023-09-07T02:48:55;100872.47;;;16.90;98.02
21504;BME280;10913;51.992;9.228;2023-09-07T02:51:23;100866.31;;;16.86;98.13
21504;BME280;10913;51.992;9.228;2023-09-07T02:53:48;100864.59;;;16.83;98.03
21504;BME280;10913;51.992;9.228;2023-09-07T02:56:14;100866.41;;;16.81;98.28
21504;BME280;10913;51.992;9.228;2023-09-07T02:58:39;100869.09;;;16.81;98.50
21504;BME280;10913;51.992;9.228;2023-09-07T03:01:08;100868.22;;;16.79;98.19
21504;BME280;10913;51.992;9.228;2023-09-07T03:03:37;100862.00;;;16.80;98.10
21504;BME280;10913;51.992;9.228;2023-09-07T03:06:10;100862.88;;;16.81;98.37
21504;BME280;10913;51.992;9.228;2023-09-07T03:08:36;100862.03;;;16.79;98.35
21504;BME280;10913;51.992;9.228;2023-09-07T03:11:05;100863.91;;;16.75;98.72
21504;BME280;10913;51.992;9.228;2023-09-07T03:13:31;100863.09;;;16.72;99.07
21504;BME280;10913;51.992;9.228;2023-09-07T03:15:57;100864.91;;;16.70;98.83
21504;BME280;10913;51.992;9.228;2023-09-07T03:18:22;100863.19;;;16.67;99.09
21504;BME280;10913;51.992;9.228;2023-09-07T03:20:49;100857.00;;;16.65;98.87
21504;BME280;10913;51.992;9.228;2023-09-07T03:23:15;100856.19;;;16.60;98.42
21504;BME280;10913;51.992;9.228;2023-09-07T03:25:40;100852.75;;;16.57;98.29
21504;BME280;10913;51.992;9.228;2023-09-07T03:28:05;100853.72;;;16.52;98.39
21504;BME280;10913;51.992;9.228;2023-09-07T03:30:31;100863.59;;;16.47;98.24
21504;BME280;10913;51.992;9.228;2023-09-07T03:32:57;100862.78;;;16.44;98.43
21504;BME280;10913;51.992;9.228;2023-09-07T03:35:23;100861.09;;;16.40;98.64
21504;BME280;10913;51.992;9.228;2023-09-07T03:37:48;100864.75;;;16.36;99.04
21504;BME280;10913;51.992;9.228;2023-09-07T03:40:13;100867.47;;;16.33;99.10
21504;BME280;10913;51.992;9.228;2023-09-07T03:42:39;100859.47;;;16.34;98.85
21504;BME280;10913;51.992;9.228;2023-09-07T03:45:05;100866.56;;;16.34;98.71
21504;BME280;10913;51.992;9.228;2023-09-07T03:47:30;100865.72;;;16.32;98.96
21504;BME280;10913;51.992;9.228;2023-09-07T03:49:56;100870.16;;;16.33;99.13
21504;BME280;10913;51.992;9.228;2023-09-07T03:52:22;100862.19;;;16.31;99.06
21504;BME280;10913;51.992;9.228;2023-09-07T03:54:50;100872.03;;;16.28;99.18
21504;BME280;10913;51.992;9.228;2023-09-07T03:57:17;100867.59;;;16.27;99.35
21504;BME280;10913;51.992;9.228;2023-09-07T03:59:42;100865.91;;;16.23;99.01
21504;BME280;10913;51.992;9.228;2023-09-07T04:02:07;100870.38;;;16.20;99.44
21504;BME280;10913;51.992;9.228;2023-09-07T04:04:33;100868.72;;;16.16;99.33
21504;BME280;10913;51.992;9.228;2023-09-07T04:06:58;100874.09;;;16.13;99.67
21504;BME280;10913;51.992;9.228;2023-09-07T04:09:23;100872.34;;;16.12;100.00
21504;BME280;10913;51.992;9.228;2023-09-07T04:11:49;100871.50;;;16.10;99.84
21504;BME280;10913;51.992;9.228;2023-09-07T04:14:14;100872.41;;;16.09;99.72
21504;BME280;10913;51.992;9.228;2023-09-07T04:16:39;100877.75;;;16.09;99.18
21504;BME280;10913;51.992;9.228;2023-09-07T04:19:05;100875.97;;;16.08;99.13
21504;BME280;10913;51.992;9.228;2023-09-07T04:21:30;100876.03;;;16.05;99.09
21504;BME280;10913;51.992;9.228;2023-09-07T04:23:55;100879.63;;;16.03;99.20
21504;BME280;10913;51.992;9.228;2023-09-07T04:26:21;100875.25;;;16.00;99.40
21504;BME280;10913;51.992;9.228;2023-09-07T04:28:46;100884.16;;;15.99;99.37
21504;BME280;10913;51.992;9.228;2023-09-07T04:31:11;100870.06;;;15.94;99.68
21504;BME280;10913;51.992;9.228;2023-09-07T04:33:37;100868.31;;;15.92;100.00
21504;BME280;10913;51.992;9.228;2023-09-07T04:36:15;100869.25;;;15.89;100.00
21504;BME280;10913;51.992;9.228;2023-09-07T04:38:41;100866.63;;;15.88;100.00
21504;BME280;10913;51.992;9.228;2023-09-07T04:41:11;100871.06;;;15.87;100.00
21504;BME280;10913;51.992;9.228;2023-09-07T04:43:38;100875.53;;;15.87;100.00
21504;BME280;10913;51.992;9.228;2023-09-07T04:46:05;100863.13;;;15.84;99.75
21504;BME280;10913;51.992;9.228;2023-09-07T04:48:32;100864.91;;;15.83;99.86
21504;BME280;10913;51.992;9.228;2023-09-07T04:51:08;100872.94;;;15.82;99.55
21504;BME280;10913;51.992;9.228;2023-09-07T04:53:35;100874.75;;;15.80;100.00
21504;BME280;10913;51.992;9.228;2023-09-07T04:56:02;100865.88;;;15.79;99.77
21504;BME280;10913;51.992;9.228;2023-09-07T04:58:27;100870.31;;;15.79;100.00
21504;BME280;10913;51.992;9.228;2023-09-07T05:00:53;100867.75;;;15.76;99.72
21504;BME280;10913;51.992;9.228;2023-09-07T05:03:18;100873.13;;;15.73;99.67
21504;BME280;10913;51.992;9.228;2023-09-07T05:05:44;100874.94;;;15.71;99.80
21504;BME280;10913;51.992;9.228;2023-09-07T05:08:10;100875.88;;;15.68;99.85
21504;BME280;10913;51.992;9.228;2023-09-07T05:10:36;100872.34;;;15.66;99.87
21504;BME280;10913;51.992;9.228;2023-09-07T05:13:02;100876.78;;;15.66;100.00
21504;BME280;10913;51.992;9.228;2023-09-07T05:15:27;100867.91;;;15.67;100.00
21504;BME280;10913;51.992;9.228;2023-09-07T05:17:53;100867.00;;;15.68;99.88
21504;BME280;10913;51.992;9.228;2023-09-07T05:20:19;100870.53;;;15.68;100.00
21504;BME280;10913;51.992;9.228;2023-09-07T05:22:44;100875.84;;;15.70;99.99
21504;BME280;10913;51.992;9.228;2023-09-07T05:25:11;100877.63;;;15.69;100.00
21504;BME280;10913;51.992;9.228;2023-09-07T05:27:36;100874.94;;;15.71;100.00
21504;BME280;10913;51.992;9.228;2023-09-07T05:30:02;100875.84;;;15.70;100.00
21504;BME280;10913;51.992;9.228;2023-09-07T05:32:28;100879.41;;;15.69;100.00
21504;BME280;10913;51.992;9.228;2023-09-07T05:34:53;100881.25;;;15.65;100.00
21504;BME280;10913;51.992;9.228;2023-09-07T05:37:18;100883.06;;;15.63;100.00
21504;BME280;10913;51.992;9.228;2023-09-07T05:39:44;100883.06;;;15.63;100.00
21504;BME280;10913;51.992;9.228;2023-09-07T05:42:10;100879.44;;;15.67;100.00
21504;BME280;10913;51.992;9.228;2023-09-07T05:44:35;100892.69;;;15.72;100.00
21504;BME280;10913;51.992;9.228;2023-09-07T05:47:00;100888.19;;;15.75;100.00
21504;BME280;10913;51.992;9.228;2023-09-07T05:49:27;100896.06;;;15.80;100.00
21504;BME280;10913;51.992;9.228;2023-09-07T05:51:53;100893.34;;;15.83;100.00
21504;BME280;10913;51.992;9.228;2023-09-07T05:54:19;100901.28;;;15.86;100.00
21504;BME280;10913;51.992;9.228;2023-09-07T05:56:44;100895.91;;;15.89;100.00
21504;BME280;10913;51.992;9.228;2023-09-07T05:59:09;100902.06;;;15.93;100.00
21504;BME280;10913;51.992;9.228;2023-09-07T06:01:35;100900.19;;;15.98;100.00
21504;BME280;10913;51.992;9.228;2023-09-07T06:04:00;100898.28;;;16.03;100.00
21504;BME280;10913;51.992;9.228;2023-09-07T06:06:25;100897.31;;;16.08;100.00
21504;BME280;10913;51.992;9.228;2023-09-07T06:08:51;100901.69;;;16.12;100.00
21504;BME280;10913;51.992;9.228;2023-09-07T06:11:16;100898.91;;;16.18;100.00
21504;BME280;10913;51.992;9.228;2023-09-07T06:13:41;100899.63;;;16.25;100.00
21504;BME280;10913;51.992;9.228;2023-09-07T06:16:07;100904.84;;;16.31;100.00
21504;BME280;10913;51.992;9.228;2023-09-07T06:18:32;100905.59;;;16.38;100.00
21504;BME280;10913;51.992;9.228;2023-09-07T06:20:58;100907.22;;;16.45;100.00
21504;BME280;10913;51.992;9.228;2023-09-07T06:23:23;100900.84;;;16.52;100.00
21504;BME280;10913;51.992;9.228;2023-09-07T06:25:49;100907.75;;;16.61;100.00
21504;BME280;10913;51.992;9.228;2023-09-07T06:28:14;100905.78;;;16.72;100.00
21504;BME280;10913;51.992;9.228;2023-09-07T06:30:40;100898.44;;;16.81;100.00
21504;BME280;10913;51.992;9.228;2023-09-07T06:33:05;100900.00;;;16.92;100.00
21504;BME280;10913;51.992;9.228;2023-09-07T06:35:30;100898.81;;;17.03;100.00
21504;BME280;10913;51.992;9.228;2023-09-07T06:37:56;100900.38;;;17.13;100.00
21504;BME280;10913;51.992;9.228;2023-09-07T06:40:22;100904.53;;;17.25;100.00
21504;BME280;10913;51.992;9.228;2023-09-07T06:42:47;100899.78;;;17.38;100.00
21504;BME280;10913;51.992;9.228;2023-09-07T06:45:13;100901.22;;;17.51;100.00
21504;BME280;10913;51.992;9.228;2023-09-07T06:47:38;100903.53;;;17.66;100.00
21504;BME280;10913;51.992;9.228;2023-09-07T06:50:04;100900.41;;;17.83;100.00
21504;BME280;10913;51.992;9.228;2023-09-07T06:52:30;100897.97;;;18.06;100.00
21504;BME280;10913;51.992;9.228;2023-09-07T06:54:55;100898.53;;;18.48;100.00
21504;BME280;10913;51.992;9.228;2023-09-07T06:57:21;100892.25;;;19.08;100.00
21504;BME280;10913;51.992;9.228;2023-09-07T06:59:47;100898.81;;;20.28;97.55
21504;BME280;10913;51.992;9.228;2023-09-07T07:02:13;100883.25;;;22.71;87.11
21504;BME280;10913;51.992;9.228;2023-09-07T07:04:39;100872.72;;;25.82;76.93
21504;BME280;10913;51.992;9.228;2023-09-07T07:07:04;100869.41;;;28.74;68.01
21504;BME280;10913;51.992;9.228;2023-09-07T07:09:31;100865.63;;;31.30;61.85
21504;BME280;10913;51.992;9.228;2023-09-07T07:11:58;100857.28;;;33.36;57.40
21504;BME280;10913;51.992;9.228;2023-09-07T07:14:25;100867.66;;;35.11;53.77
21504;BME280;10913;51.992;9.228;2023-09-07T07:16:50;100872.97;;;36.45;51.61
21504;BME280;10913;51.992;9.228;2023-09-07T07:19:16;100862.06;;;37.70;49.55
21504;BME280;10913;51.992;9.228;2023-09-07T07:21:41;100865.94;;;38.49;47.89
21504;BME280;10913;51.992;9.228;2023-09-07T07:24:07;100869.81;;;39.49;46.69
21504;BME280;10913;51.992;9.228;2023-09-07T07:26:33;100871.56;;;40.25;45.56
21504;BME280;10913;51.992;9.228;2023-09-07T07:28:58;100867.16;;;41.04;44.52
21504;BME280;10913;51.992;9.228;2023-09-07T07:31:23;100870.91;;;41.69;43.42
21504;BME280;10913;51.992;9.228;2023-09-07T07:33:49;100874.50;;;42.12;42.76
21504;BME280;10913;51.992;9.228;2023-09-07T07:36:15;100874.13;;;42.21;42.01
21504;BME280;10913;51.992;9.228;2023-09-07T07:38:41;100872.63;;;42.47;41.86
21504;BME280;10913;51.992;9.228;2023-09-07T07:41:06;100869.06;;;42.53;40.74
21504;BME280;10913;51.992;9.228;2023-09-07T07:43:32;100869.59;;;42.42;41.71
21504;BME280;10913;51.992;9.228;2023-09-07T07:45:57;100871.53;;;42.76;41.34
21504;BME280;10913;51.992;9.228;2023-09-07T07:48:24;100865.22;;;42.95;41.25
21504;BME280;10913;51.992;9.228;2023-09-07T07:50:49;100869.63;;;43.24;40.17
21504;BME280;10913;51.992;9.228;2023-09-07T07:53:15;100869.25;;;43.47;40.23
21504;BME280;10913;51.992;9.228;2023-09-07T07:55:40;100872.97;;;43.93;40.31
21504;BME280;10913;51.992;9.228;2023-09-07T07:58:06;100870.81;;;44.22;39.80
21504;BME280;10913;51.992;9.228;2023-09-07T08:00:36;100875.28;;;44.49;39.37
21504;BME280;10913;51.992;9.228;2023-09-07T08:03:01;100877.56;;;44.79;39.62
21504;BME280;10913;51.992;9.228;2023-09-07T08:05:29;100873.06;;;44.78;39.26
21504;BME280;10913;51.992;9.228;2023-09-07T08:07:56;100868.25;;;44.98;39.00
21504;BME280;10913;51.992;9.228;2023-09-07T08:10:21;100859.97;;;44.85;39.19
21504;BME280;10913;51.992;9.228;2023-09-07T08:12:47;100864.72;;;44.71;39.57
21504;BME280;10913;51.992;9.228;2023-09-07T08:15:12;100855.78;;;44.29;39.69
21504;BME280;10913;51.992;9.228;2023-09-07T08:17:37;100852.19;;;44.03;39.86
21504;BME280;10913;51.992;9.228;2023-09-07T08:20:03;100852.38;;;43.88;39.88
21504;BME280;10913;51.992;9.228;2023-09-07T08:22:29;100847.88;;;43.60;40.22
21504;BME280;10913;51.992;9.228;2023-09-07T08:24:54;100849.78;;;43.60;40.47
21504;BME280;10913;51.992;9.228;2023-09-07T08:27:20;100846.75;;;43.42;40.67
21504;BME280;10913;51.992;9.228;2023-09-07T08:29:46;100847.09;;;43.19;40.38
21504;BME280;10913;51.992;9.228;2023-09-07T08:32:13;100846.81;;;42.94;40.62
21504;BME280;10913;51.992;9.228;2023-09-07T08:34:39;100851.16;;;42.69;41.72
21504;BME280;10913;51.992;9.228;2023-09-07T08:37:06;100846.97;;;42.45;41.73
21504;BME280;10913;51.992;9.228;2023-09-07T08:39:34;100843.13;;;42.18;41.97
21504;BME280;10913;51.992;9.228;2023-09-07T08:41:59;100844.41;;;41.66;41.81
21504;BME280;10913;51.992;9.228;2023-09-07T08:44:26;100844.88;;;41.12;43.08
21504;BME280;10913;51.992;9.228;2023-09-07T08:46:52;100851.78;;;40.28;42.83
21504;BME280;10913;51.992;9.228;2023-09-07T08:49:18;100845.63;;;39.88;43.20
21504;BME280;10913;51.992;9.228;2023-09-07T08:51:45;100836.94;;;39.23;43.05
21504;BME280;10913;51.992;9.228;2023-09-07T08:54:11;100849.69;;;39.01;44.76
21504;BME280;10913;51.992;9.228;2023-09-07T08:56:37;100841.88;;;38.74;43.92
21504;BME280;10913;51.992;9.228;2023-09-07T08:59:02;100843.03;;;38.32;44.24
21504;BME280;10913;51.992;9.228;2023-09-07T09:01:30;100853.03;;;38.25;45.23
21504;BME280;10913;51.992;9.228;2023-09-07T09:03:57;100846.88;;;37.66;45.89
21504;BME280;10913;51.992;9.228;2023-09-07T09:06:23;100843.00;;;37.18;45.42
21504;BME280;10913;51.992;9.228;2023-09-07T09:08:52;100849.28;;;36.61;45.76
21504;BME280;10913;51.992;9.228;2023-09-07T09:11:19;100844.97;;;36.58;48.14
21504;BME280;10913;51.992;9.228;2023-09-07T09:13:45;100849.16;;;35.84;47.40
21504;BME280;10913;51.992;9.228;2023-09-07T09:16:11;100850.28;;;35.56;48.10
21504;BME280;10913;51.992;9.228;2023-09-07T09:18:36;100854.19;;;35.53;48.93
21504;BME280;10913;51.992;9.228;2023-09-07T09:21:03;100852.38;;;34.72;47.91
21504;BME280;10913;51.992;9.228;2023-09-07T09:23:48;100848.13;;;34.13;49.31
21504;BME280;10913;51.992;9.228;2023-09-07T09:26:15;100844.81;;;34.00;50.28
21504;BME280;10913;51.992;9.228;2023-09-07T09:28:40;100845.56;;;33.73;50.91
21504;BME280;10913;51.992;9.228;2023-09-07T09:31:06;100840.47;;;33.20;50.31
21504;BME280;10913;51.992;9.228;2023-09-07T09:33:37;100834.34;;;32.78;51.60
21504;BME280;10913;51.992;9.228;2023-09-07T09:36:03;100839.38;;;32.12;52.07
21504;BME280;10913;51.992;9.228;2023-09-07T09:38:29;100847.75;;;31.99;53.53
21504;BME280;10913;51.992;9.228;2023-09-07T09:40:57;100844.38;;;32.07;54.72
21504;BME280;10913;51.992;9.228;2023-09-07T09:43:24;100840.53;;;32.19;53.64
21504;BME280;10913;51.992;9.228;2023-09-07T09:45:50;100839.00;;;31.96;53.07
21504;BME280;10913;51.992;9.228;2023-09-07T09:48:18;100839.25;;;31.93;54.35
21504;BME280;10913;51.992;9.228;2023-09-07T09:50:46;100840.00;;;31.95;53.52
21504;BME280;10913;51.992;9.228;2023-09-07T09:53:15;100834.41;;;31.75;54.12
21504;BME280;10913;51.992;9.228;2023-09-07T09:55:52;100831.69;;;31.64;54.22
21504;BME280;10913;51.992;9.228;2023-09-07T09:58:18;100825.78;;;31.27;54.11
21504;BME280;10913;51.992;9.228;2023-09-07T10:00:48;100826.75;;;30.83;54.80
21504;BME280;10913;51.992;9.228;2023-09-07T10:05:48;100826.72;;;30.94;54.71
21504;BME280;10913;51.992;9.228;2023-09-07T10:08:16;100830.09;;;30.87;54.70
21504;BME280;10913;51.992;9.228;2023-09-07T10:10:43;100824.53;;;30.77;55.38
21504;BME280;10913;51.992;9.228;2023-09-07T10:13:13;100828.19;;;30.98;56.63
21504;BME280;10913;51.992;9.228;2023-09-07T10:15:38;100825.69;;;31.06;55.33
21504;BME280;10913;51.992;9.228;2023-09-07T10:18:15;100823.69;;;31.08;54.62
21504;BME280;10913;51.992;9.228;2023-09-07T10:20:50;100818.09;;;31.21;56.68
21504;BME280;10913;51.992;9.228;2023-09-07T10:23:17;100818.97;;;31.22;54.50
21504;BME280;10913;51.992;9.228;2023-09-07T10:25:47;100815.38;;;31.10;54.99
21504;BME280;10913;51.992;9.228;2023-09-07T10:28:23;100816.31;;;30.88;55.46
21504;BME280;10913;51.992;9.228;2023-09-07T10:31:04;100807.66;;;30.72;55.30
21504;BME280;10913;51.992;9.228;2023-09-07T10:33:34;100808.03;;;30.67;56.38
21504;BME280;10913;51.992;9.228;2023-09-07T10:36:01;100809.16;;;30.76;56.09
21504;BME280;10913;51.992;9.228;2023-09-07T10:38:27;100803.94;;;30.73;55.05
21504;BME280;10913;51.992;9.228;2023-09-07T10:40:56;100808.88;;;30.79;56.04
21504;BME280;10913;51.992;9.228;2023-09-07T10:43:33;100795.97;;;30.81;55.26
21504;BME280;10913;51.992;9.228;2023-09-07T10:45:59;100796.84;;;30.81;55.46
21504;BME280;10913;51.992;9.228;2023-09-07T10:48:28;100798.44;;;30.95;55.04
21504;BME280;10913;51.992;9.228;2023-09-07T10:50:54;100794.84;;;30.95;55.11
21504;BME280;10913;51.992;9.228;2023-09-07T10:53:27;100797.16;;;30.99;54.74
21504;BME280;10913;51.992;9.228;2023-09-07T10:55:53;100793.53;;;31.10;54.67
21504;BME280;10913;51.992;9.228;2023-09-07T10:58:33;100795.91;;;31.03;54.32
21504;BME280;10913;51.992;9.228;2023-09-07T11:00:59;100795.31;;;31.11;53.94
21504;BME280;10913;51.992;9.228;2023-09-07T11:03:26;100790.94;;;31.08;53.78
21504;BME280;10913;51.992;9.228;2023-09-07T11:06:09;100786.06;;;31.23;54.44
21504;BME280;10913;51.992;9.228;2023-09-07T11:08:35;100795.81;;;31.37;55.56
21504;BME280;10913;51.992;9.228;2023-09-07T11:11:04;100783.75;;;31.39;56.11
21504;BME280;10913;51.992;9.228;2023-09-07T11:13:30;100783.31;;;31.55;55.38
21504;BME280;10913;51.992;9.228;2023-09-07T11:15:56;100775.56;;;31.60;52.99
21504;BME280;10913;51.992;9.228;2023-09-07T11:18:22;100781.63;;;31.43;53.89
21504;BME280;10913;51.992;9.228;2023-09-07T11:20:49;100777.09;;;31.32;53.59
21504;BME280;10913;51.992;9.228;2023-09-07T11:23:16;100769.38;;;31.37;54.31
21504;BME280;10913;51.992;9.228;2023-09-07T11:25:42;100772.16;;;31.47;53.75
21504;BME280;10913;51.992;9.228;2023-09-07T11:28:08;100771.56;;;31.43;54.10
21504;BME280;10913;51.992;9.228;2023-09-07T11:30:34;100773.00;;;31.27;53.91
21504;BME280;10913;51.992;9.228;2023-09-07T11:33:04;100771.94;;;31.07;53.75
21504;BME280;10913;51.992;9.228;2023-09-07T11:35:30;100763.69;;;30.97;53.54
21504;BME280;10913;51.992;9.228;2023-09-07T11:37:55;100769.69;;;30.80;53.29
21504;BME280;10913;51.992;9.228;2023-09-07T11:40:21;100772.06;;;30.73;54.86
21504;BME280;10913;51.992;9.228;2023-09-07T11:42:46;100772.69;;;30.66;55.16
21504;BME280;10913;51.992;9.228;2023-09-07T11:45:12;100767.38;;;30.75;54.68
21504;BME280;10913;51.992;9.228;2023-09-07T11:47:38;100759.91;;;30.77;53.55
21504;BME280;10913;51.992;9.228;2023-09-07T11:50:05;100765.63;;;30.74;54.38
21504;BME280;10913;51.992;9.228;2023-09-07T11:52:32;100761.72;;;30.88;54.17
21504;BME280;10913;51.992;9.228;2023-09-07T11:54:57;100759.81;;;31.00;54.71
21504;BME280;10913;51.992;9.228;2023-09-07T11:57:22;100755.50;;;30.97;53.85
21504;BME280;10913;51.992;9.228;2023-09-07T11:59:48;100760.53;;;31.02;54.32
21504;BME280;10913;51.992;9.228;2023-09-07T12:02:13;100761.41;;;31.02;53.97
21504;BME280;10913;51.992;9.228;2023-09-07T12:04:40;100754.56;;;31.08;52.95
21504;BME280;10913;51.992;9.228;2023-09-07T12:07:05;100753.97;;;31.04;53.40
21504;BME280;10913;51.992;9.228;2023-09-07T12:09:31;100755.56;;;31.07;53.95
21504;BME280;10913;51.992;9.228;2023-09-07T12:11:57;100747.50;;;31.05;53.19
21504;BME280;10913;51.992;9.228;2023-09-07T12:14:22;100752.22;;;31.03;53.52
21504;BME280;10913;51.992;9.228;2023-09-07T12:16:48;100749.13;;;31.08;54.34
21504;BME280;10913;51.992;9.228;2023-09-07T12:19:13;100746.97;;;31.23;55.67
21504;BME280;10913;51.992;9.228;2023-09-07T12:21:38;100734.19;;;31.44;54.43
21504;BME280;10913;51.992;9.228;2023-09-07T12:24:04;100740.59;;;31.54;55.35
21504;BME280;10913;51.992;9.228;2023-09-07T12:26:30;100735.81;;;31.67;54.29
21504;BME280;10913;51.992;9.228;2023-09-07T12:28:56;100741.00;;;31.70;53.67
21504;BME280;10913;51.992;9.228;2023-09-07T12:31:21;100736.88;;;31.76;53.96
21504;BME280;10913;51.992;9.228;2023-09-07T12:33:47;100730.56;;;31.85;54.65
21504;BME280;10913;51.992;9.228;2023-09-07T12:36:12;100721.63;;;31.83;53.60
21504;BME280;10913;51.992;9.228;2023-09-07T12:38:38;100734.44;;;31.82;53.98
21504;BME280;10913;51.992;9.228;2023-09-07T12:41:03;100741.00;;;31.70;55.23
21504;BME280;10913;51.992;9.228;2023-09-07T12:43:28;100730.53;;;31.75;55.14
21504;BME280;10913;51.992;9.228;2023-09-07T12:45:54;100732.56;;;31.62;54.52